createdAt,value
2023-04-28T00:00:13.301Z,10.63
2023-04-28T00:02:41.792Z,9.80
2023-04-28T00:05:10.856Z,10.15
2023-04-28T00:07:39.306Z,9.48
2023-04-28T00:10:08.667Z,10.27
2023-04-28T00:12:37.037Z,17.60
2023-04-28T00:15:05.721Z,19.08
2023-04-28T00:17:35.624Z,18.17
2023-04-28T00:20:04.711Z,13.85
2023-04-28T00:22:33.233Z,10.27
2023-04-28T00:25:01.675Z,10.45
2023-04-28T00:27:29.798Z,9.85
2023-04-28T00:29:57.966Z,10.00
2023-04-28T00:32:26.296Z,10.27
2023-04-28T00:34:55.950Z,10.93
2023-04-28T00:37:24.014Z,10.68
2023-04-28T00:39:56.521Z,13.38
2023-04-28T00:42:24.953Z,12.70
2023-04-28T00:44:53.004Z,12.60
2023-04-28T00:47:21.161Z,11.30
2023-04-28T00:49:50.764Z,13.48
2023-04-28T00:52:20.374Z,11.88
2023-04-28T00:54:48.996Z,9.73
2023-04-28T00:57:17.186Z,9.65
2023-04-28T00:59:45.440Z,9.50
2023-04-28T01:02:17.712Z,10.07
2023-04-28T01:04:46.818Z,11.85
2023-04-28T01:07:15.116Z,11.35
2023-04-28T01:09:48.067Z,11.00
2023-04-28T01:12:16.400Z,12.05
2023-04-28T01:14:44.757Z,11.25
2023-04-28T01:17:13.251Z,10.88
2023-04-28T01:19:41.496Z,10.45
2023-04-28T01:22:10.822Z,10.43
2023-04-28T01:24:40.352Z,10.38
2023-04-28T01:27:08.555Z,10.18
2023-04-28T01:29:36.700Z,9.68
2023-04-28T01:32:05.508Z,9.35
2023-04-28T01:34:33.721Z,10.30
2023-04-28T01:37:01.896Z,9.85
2023-04-28T01:39:30.095Z,7.85
2023-04-28T01:41:59.470Z,7.88
2023-04-28T01:44:27.798Z,7.60
2023-04-28T01:46:56.352Z,6.72
2023-04-28T01:49:24.820Z,6.38
2023-04-28T01:51:52.921Z,6.82
2023-04-28T01:54:21.682Z,6.88
2023-04-28T01:56:50.079Z,7.00
2023-04-28T01:59:20.939Z,6.78
2023-04-28T02:01:49.170Z,7.68
2023-04-28T02:04:17.829Z,7.65
2023-04-28T02:06:46.510Z,7.22
2023-04-28T02:09:14.829Z,8.00
2023-04-28T02:11:42.990Z,7.07
2023-04-28T02:14:11.133Z,6.82
2023-04-28T02:16:40.555Z,7.07
2023-04-28T02:19:08.672Z,7.82
2023-04-28T02:21:36.733Z,7.07
2023-04-28T02:24:05.088Z,7.45
2023-04-28T02:26:34.716Z,8.32
2023-04-28T02:29:04.400Z,9.05
2023-04-28T02:31:33.148Z,10.68
2023-04-28T02:34:02.818Z,9.35
2023-04-28T02:36:32.144Z,9.13
2023-04-28T02:39:00.341Z,8.23
2023-04-28T02:41:30.016Z,8.45
2023-04-28T02:43:58.252Z,8.50
2023-04-28T02:46:26.432Z,8.90
2023-04-28T02:48:54.597Z,10.23
2023-04-28T02:51:24.117Z,10.82
2023-04-28T02:53:52.279Z,10.77
2023-04-28T02:56:20.622Z,10.10
2023-04-28T02:58:48.838Z,10.85
2023-04-28T03:01:17.063Z,10.48
2023-04-28T03:03:45.350Z,10.75
2023-04-28T03:06:14.043Z,10.48
2023-04-28T03:08:44.098Z,10.68
2023-04-28T03:11:12.425Z,10.07
2023-04-28T03:13:40.654Z,11.77
2023-04-28T03:16:09.287Z,10.77
2023-04-28T03:18:37.668Z,10.32
2023-04-28T03:21:06.266Z,10.13
2023-04-28T03:23:34.430Z,9.00
2023-04-28T03:26:03.966Z,9.63
2023-04-28T03:28:32.394Z,8.70
2023-04-28T03:31:00.950Z,9.85
2023-04-28T03:33:29.815Z,10.85
2023-04-28T03:35:57.972Z,12.18
2023-04-28T03:38:26.155Z,15.38
2023-04-28T03:40:54.507Z,16.60
2023-04-28T03:43:24.116Z,13.55
2023-04-28T03:45:52.549Z,9.90
2023-04-28T03:48:21.194Z,10.23
2023-04-28T03:50:49.636Z,10.77
2023-04-28T03:53:17.628Z,10.70
2023-04-28T03:55:46.302Z,10.35
2023-04-28T03:58:14.478Z,11.65
2023-04-28T04:00:43.874Z,10.73
2023-04-28T04:03:12.330Z,10.70
2023-04-28T04:05:41.728Z,12.20
2023-04-28T04:08:10.507Z,12.98
2023-04-28T04:10:38.542Z,11.10
2023-04-28T04:13:06.692Z,9.98
2023-04-28T04:15:34.921Z,9.60
2023-04-28T04:18:04.526Z,10.95
2023-04-28T04:20:32.679Z,12.07
2023-04-28T04:23:01.591Z,10.63
2023-04-28T04:25:29.701Z,9.00
2023-04-28T04:27:57.855Z,9.57
2023-04-28T04:30:25.937Z,10.25
2023-04-28T04:32:54.213Z,9.52
2023-04-28T04:35:23.883Z,9.75
2023-04-28T04:37:52.284Z,9.85
2023-04-28T04:40:20.633Z,9.82
2023-04-28T04:42:48.770Z,9.63
2023-04-28T04:45:17.466Z,9.90
2023-04-28T04:47:45.834Z,10.52
2023-04-28T04:50:14.197Z,9.90
2023-04-28T04:52:43.660Z,10.40
2023-04-28T04:55:12.463Z,10.13
2023-04-28T04:57:40.582Z,10.52
2023-04-28T05:00:09.828Z,9.95
2023-04-28T05:02:38.359Z,9.95
2023-04-28T05:05:19.762Z,10.07
2023-04-28T05:07:51.396Z,10.30
2023-04-28T05:10:19.584Z,10.85
2023-04-28T05:12:49.098Z,10.45
2023-04-28T05:15:17.660Z,9.85
2023-04-28T05:17:46.091Z,11.25
2023-04-28T05:20:14.289Z,9.68
2023-04-28T05:22:42.398Z,11.18
2023-04-28T05:25:12.153Z,9.93
2023-04-28T05:27:41.237Z,10.68
2023-04-28T05:30:10.865Z,10.63
2023-04-28T05:32:40.058Z,11.23
2023-04-28T05:35:08.803Z,10.52
2023-04-28T05:37:37.814Z,10.30
2023-04-28T05:40:08.028Z,9.90
2023-04-28T05:42:37.653Z,11.05
2023-04-28T05:45:07.106Z,9.95
2023-04-28T05:47:35.311Z,10.27
2023-04-28T05:50:03.444Z,9.65
2023-04-28T05:52:31.829Z,9.13
2023-04-28T05:55:00.012Z,9.80
2023-04-28T05:57:29.346Z,10.18
2023-04-28T06:00:01.518Z,9.48
2023-04-28T06:02:29.839Z,8.95
2023-04-28T06:04:58.128Z,8.75
2023-04-28T06:07:26.386Z,8.75
2023-04-28T06:09:54.559Z,7.88
2023-04-28T06:12:22.954Z,8.93
2023-04-28T06:14:53.080Z,8.93
2023-04-28T06:17:22.723Z,8.30
2023-04-28T06:19:51.449Z,7.72
2023-04-28T06:22:19.569Z,6.65
2023-04-28T06:24:48.019Z,6.68
2023-04-28T06:27:16.309Z,6.72
2023-04-28T06:29:44.477Z,6.55
2023-04-28T06:32:12.588Z,5.32
2023-04-28T06:34:42.072Z,6.00
2023-04-28T06:37:10.300Z,6.18
2023-04-28T06:39:38.557Z,6.80
2023-04-28T06:42:07.372Z,6.85
2023-04-28T06:44:36.558Z,5.75
2023-04-28T06:47:05.482Z,6.25
2023-04-28T06:49:33.712Z,5.13
2023-04-28T06:52:03.371Z,5.70
2023-04-28T06:54:31.954Z,5.10
2023-04-28T06:57:00.300Z,6.00
2023-04-28T06:59:28.489Z,5.60
2023-04-28T07:01:57.218Z,5.45
2023-04-28T07:04:25.810Z,5.72
2023-04-28T07:06:54.131Z,5.10
2023-04-28T07:09:23.920Z,5.63
2023-04-28T07:11:52.197Z,5.60
2023-04-28T07:14:20.315Z,5.00
2023-04-28T07:16:48.708Z,5.88
2023-04-28T07:19:17.083Z,5.38
2023-04-28T07:21:46.276Z,4.93
2023-04-28T07:24:15.305Z,4.95
2023-04-28T07:26:45.408Z,4.90
2023-04-28T07:29:15.086Z,4.93
2023-04-28T07:31:43.650Z,4.15
2023-04-28T07:34:11.960Z,5.50
2023-04-28T07:36:40.159Z,5.78
2023-04-28T07:39:08.253Z,3.58
2023-04-28T07:41:38.380Z,3.70
2023-04-28T07:44:09.310Z,4.82
2023-04-28T07:46:37.797Z,3.80
2023-04-28T07:49:06.363Z,3.88
2023-04-28T07:51:34.763Z,4.20
2023-04-28T07:54:02.872Z,3.88
2023-04-28T07:56:31.773Z,3.35
2023-04-28T07:59:00.385Z,3.53
2023-04-28T08:01:30.345Z,3.83
2023-04-28T08:03:58.699Z,2.97
2023-04-28T08:06:27.265Z,3.17
2023-04-28T08:08:56.492Z,3.30
2023-04-28T08:11:24.775Z,2.55
2023-04-28T08:13:53.216Z,3.00
2023-04-28T08:16:22.650Z,3.13
2023-04-28T08:18:52.392Z,2.83
2023-04-28T08:21:20.641Z,3.03
2023-04-28T08:23:48.693Z,2.75
2023-04-28T08:26:16.870Z,3.10
2023-04-28T08:28:45.109Z,2.90
2023-04-28T08:31:13.133Z,2.72
2023-04-28T08:33:44.661Z,2.78
2023-04-28T08:36:15.172Z,2.53
2023-04-28T08:38:44.260Z,2.60
2023-04-28T08:41:13.916Z,3.55
2023-04-28T08:43:43.888Z,2.65
2023-04-28T08:46:11.979Z,2.75
2023-04-28T08:48:42.937Z,2.80
2023-04-28T08:51:16.082Z,2.88
2023-04-28T08:56:26.429Z,3.20
2023-04-28T08:58:55.411Z,2.85
2023-04-28T09:01:23.874Z,2.75
2023-04-28T09:03:52.551Z,3.05
2023-04-28T09:06:23.188Z,4.60
2023-04-28T09:08:51.324Z,3.08
2023-04-28T09:11:19.487Z,3.05
2023-04-28T09:13:47.746Z,3.40
2023-04-28T09:16:16.342Z,3.78
2023-04-28T09:18:57.861Z,3.08
2023-04-28T09:21:27.580Z,3.05
2023-04-28T09:23:55.685Z,2.97
2023-04-28T09:26:24.664Z,3.28
2023-04-28T09:28:57.314Z,2.75
2023-04-28T09:31:28.264Z,2.78
2023-04-28T09:33:59.971Z,2.90
2023-04-28T09:36:30.881Z,2.60
2023-04-28T09:39:00.242Z,2.83
2023-04-28T09:41:38.511Z,2.83
2023-04-28T09:44:14.382Z,2.78
2023-04-28T09:46:43.429Z,2.97
2023-04-28T09:49:15.471Z,2.95
2023-04-28T09:51:45.120Z,3.20
2023-04-28T09:54:17.605Z,2.90
2023-04-28T09:56:48.493Z,2.83
2023-04-28T09:59:18.311Z,3.20
2023-04-28T10:01:47.260Z,2.78
2023-04-28T10:04:16.607Z,3.20
2023-04-28T10:06:46.860Z,2.97
2023-04-28T10:09:16.635Z,2.42
2023-04-28T10:11:45.163Z,3.20
2023-04-28T10:14:13.710Z,2.63
2023-04-28T10:16:42.024Z,3.17
2023-04-28T10:19:11.280Z,3.47
2023-04-28T10:21:49.354Z,3.28
2023-04-28T10:24:28.112Z,3.10
2023-04-28T10:27:05.443Z,3.22
2023-04-28T10:29:34.574Z,3.70
2023-04-28T10:32:33.455Z,3.45
2023-04-28T10:35:36.465Z,3.38
2023-04-28T10:38:06.349Z,3.78
2023-04-28T10:40:36.817Z,3.47
2023-04-28T10:43:05.881Z,3.00
2023-04-28T10:46:07.309Z,2.67
2023-04-28T10:48:56.586Z,2.70
2023-04-28T10:51:35.253Z,2.95
2023-04-28T10:54:28.484Z,3.00
2023-04-28T10:57:20.703Z,3.05
2023-04-28T10:59:50.526Z,3.28
2023-04-28T11:02:39.575Z,2.80
2023-04-28T11:05:16.514Z,4.00
2023-04-28T11:08:29.469Z,3.13
2023-04-28T11:11:17.134Z,2.55
2023-04-28T11:13:48.231Z,3.00
2023-04-28T11:16:18.673Z,3.28
2023-04-28T11:19:11.460Z,3.30
2023-04-28T11:21:41.379Z,2.90
2023-04-28T11:24:12.728Z,3.75
2023-04-28T11:26:41.501Z,3.03
2023-04-28T11:29:11.863Z,3.20
2023-04-28T11:31:40.247Z,3.10
2023-04-28T11:34:12.142Z,3.25
2023-04-28T11:36:41.465Z,3.10
2023-04-28T11:39:11.470Z,5.07
2023-04-28T11:41:41.894Z,3.47
2023-04-28T11:44:16.055Z,2.67
2023-04-28T11:46:51.036Z,3.00
2023-04-28T11:49:20.883Z,3.05
2023-04-28T11:51:50.440Z,3.65
2023-04-28T11:54:22.894Z,3.15
2023-04-28T11:56:51.294Z,2.95
2023-04-28T11:59:25.888Z,2.65
2023-04-28T12:01:57.271Z,2.58
2023-04-28T12:04:30.587Z,3.35
2023-04-28T12:07:03.059Z,2.60
2023-04-28T12:09:31.598Z,3.03
2023-04-28T12:12:04.727Z,2.90
2023-04-28T12:14:54.601Z,2.83
2023-04-28T12:17:26.826Z,2.88
2023-04-28T12:19:55.371Z,3.70
2023-04-28T12:22:24.030Z,2.50
2023-04-28T12:25:08.506Z,2.20
2023-04-28T12:27:39.277Z,2.53
2023-04-28T12:30:32.760Z,2.83
2023-04-28T12:33:00.950Z,2.92
2023-04-28T12:35:30.641Z,2.97
2023-04-28T12:37:59.710Z,2.70
2023-04-28T12:40:27.970Z,2.70
2023-04-28T12:42:57.088Z,3.13
2023-04-28T12:45:25.383Z,2.80
2023-04-28T12:47:55.464Z,3.75
2023-04-28T12:50:24.381Z,2.88
2023-04-28T12:52:52.507Z,2.80
2023-04-28T12:55:20.549Z,2.20
2023-04-28T12:57:48.772Z,2.80
2023-04-28T13:00:17.336Z,2.20
2023-04-28T13:02:46.731Z,2.40
2023-04-28T13:05:16.506Z,2.42
2023-04-28T13:07:45.399Z,2.47
2023-04-28T13:10:13.876Z,2.75
2023-04-28T13:12:42.615Z,4.53
2023-04-28T13:15:11.993Z,3.33
2023-04-28T13:17:40.317Z,4.53
2023-04-28T13:20:09.761Z,4.10
2023-04-28T13:22:40.050Z,6.15
2023-04-28T13:25:09.456Z,8.35
2023-04-28T13:27:38.065Z,9.05
2023-04-28T13:30:08.866Z,13.43
2023-04-28T13:32:36.955Z,18.08
2023-04-28T13:35:05.525Z,21.65
2023-04-28T13:37:33.606Z,23.65
2023-04-28T13:40:04.796Z,26.02
2023-04-28T13:42:33.022Z,26.63
2023-04-28T13:45:01.130Z,23.23
2023-04-28T13:47:29.557Z,25.85
2023-04-28T13:50:00.209Z,25.10
2023-04-28T13:52:28.346Z,25.52
2023-04-28T13:54:56.429Z,22.65
2023-04-28T13:57:26.005Z,22.35
2023-04-28T13:59:54.132Z,26.33
2023-04-28T14:02:22.453Z,18.27
2023-04-28T14:04:51.553Z,15.60
2023-04-28T14:07:20.216Z,17.83
2023-04-28T14:09:48.540Z,20.17
2023-04-28T14:12:17.017Z,23.52
2023-04-28T14:14:49.080Z,18.90
2023-04-28T14:17:17.523Z,13.50
2023-04-28T14:19:45.972Z,14.18
2023-04-28T14:22:14.052Z,15.98
2023-04-28T14:24:43.365Z,28.58
2023-04-28T14:27:11.583Z,36.78
2023-04-28T14:29:39.862Z,21.65
2023-04-28T14:32:09.410Z,22.10
2023-04-28T14:34:37.672Z,33.35
2023-04-28T14:37:05.858Z,36.00
2023-04-28T14:39:33.938Z,21.10
2023-04-28T14:42:02.009Z,19.00
2023-04-28T14:44:30.535Z,20.45
2023-04-28T14:47:00.176Z,20.00
2023-04-28T14:49:30.073Z,19.70
2023-04-28T14:52:00.082Z,41.50
2023-04-28T14:54:28.228Z,23.38
2023-04-28T14:56:56.423Z,21.23
2023-04-28T14:59:24.490Z,31.00
2023-04-28T15:01:53.053Z,42.90
2023-04-28T15:04:22.129Z,20.45
2023-04-28T15:06:51.788Z,27.20
2023-04-28T15:09:19.822Z,22.63
2023-04-28T15:11:48.097Z,19.63
2023-04-28T15:14:16.583Z,28.10
2023-04-28T15:16:45.353Z,24.80
2023-04-28T15:19:13.406Z,28.73
2023-04-28T15:21:41.954Z,29.88
2023-04-28T15:24:11.456Z,27.65
2023-04-28T15:26:39.674Z,23.65
2023-04-28T15:29:07.731Z,26.20
2023-04-28T15:31:36.001Z,36.45
2023-04-28T15:34:04.302Z,22.20
2023-04-28T15:36:32.563Z,23.77
2023-04-28T15:39:00.534Z,30.33
2023-04-28T15:41:30.072Z,26.20
2023-04-28T15:43:58.382Z,36.42
2023-04-28T15:46:26.577Z,28.85
2023-04-28T15:48:55.155Z,37.38
2023-04-28T15:51:23.642Z,32.17
2023-04-28T15:53:51.943Z,31.10
2023-04-28T15:56:20.459Z,32.83
2023-04-28T15:58:50.750Z,34.75
2023-04-28T16:01:19.287Z,32.35
2023-04-28T16:03:48.355Z,35.08
2023-04-28T16:06:16.894Z,32.10
2023-04-28T16:08:45.068Z,34.90
2023-04-28T16:11:19.476Z,40.42
2023-04-28T16:13:50.090Z,37.10
2023-04-28T16:16:18.207Z,46.10
2023-04-28T16:18:46.362Z,38.80
2023-04-28T16:21:17.359Z,33.00
2023-04-28T16:23:45.506Z,33.50
2023-04-28T16:26:13.761Z,40.28
2023-04-28T16:28:41.878Z,31.88
2023-04-28T16:31:13.357Z,27.45
2023-04-28T16:33:41.467Z,31.95
2023-04-28T16:36:09.720Z,27.85
2023-04-28T16:38:37.862Z,21.58
2023-04-28T16:41:06.691Z,19.42
2023-04-28T16:43:36.267Z,17.55
2023-04-28T16:46:04.569Z,15.25
2023-04-28T16:48:34.282Z,17.90
2023-04-28T16:51:02.515Z,12.32
2023-04-28T16:53:30.731Z,10.02
2023-04-28T16:55:58.890Z,5.60
2023-04-28T16:58:27.235Z,5.90
2023-04-28T17:00:55.413Z,4.30
2023-04-28T17:03:23.725Z,3.80
2023-04-28T17:05:53.345Z,4.22
2023-04-28T17:08:21.486Z,3.45
2023-04-28T17:10:49.617Z,4.32
2023-04-28T17:13:17.796Z,3.65
2023-04-28T17:15:45.858Z,3.40
2023-04-28T17:18:14.180Z,4.10
2023-04-28T17:20:43.057Z,4.03
2023-04-28T17:23:12.847Z,4.40
2023-04-28T17:25:41.023Z,4.28
2023-04-28T17:28:09.214Z,14.80
2023-04-28T17:30:38.382Z,21.83
2023-04-28T17:33:06.868Z,20.33
2023-04-28T17:35:35.017Z,6.35
2023-04-28T17:38:03.180Z,9.20
2023-04-28T17:40:32.756Z,16.00
2023-04-28T17:43:00.900Z,19.95
2023-04-28T17:45:29.038Z,29.00
2023-04-28T17:48:00.305Z,19.15
2023-04-28T17:50:28.784Z,21.63
2023-04-28T17:52:56.931Z,21.55
2023-04-28T17:55:25.070Z,23.08
2023-04-28T17:57:54.586Z,18.83
2023-04-28T18:00:22.885Z,30.25
2023-04-28T18:02:52.655Z,28.23
2023-04-28T18:05:23.236Z,25.98
2023-04-28T18:07:51.667Z,21.55
2023-04-28T18:10:20.103Z,23.35
2023-04-28T18:12:48.214Z,18.52
2023-04-28T18:15:17.854Z,28.77
2023-04-28T18:17:45.994Z,28.30
2023-04-28T18:20:14.643Z,24.42
2023-04-28T18:22:42.959Z,18.50
2023-04-28T18:25:16.840Z,18.83
2023-04-28T18:27:44.983Z,25.15
2023-04-28T18:30:16.054Z,24.27
2023-04-28T18:32:45.688Z,20.58
2023-04-28T18:35:15.164Z,13.18
2023-04-28T18:37:44.941Z,15.48
2023-04-28T18:40:13.476Z,18.02
2023-04-28T18:42:41.606Z,16.05
2023-04-28T18:47:45.219Z,16.00
2023-04-28T18:50:13.402Z,10.05
2023-04-28T18:52:41.514Z,10.75
2023-04-28T18:55:09.801Z,12.27
2023-04-28T18:57:39.678Z,13.20
2023-04-28T19:00:09.827Z,9.93
2023-04-28T19:02:38.235Z,10.18
2023-04-28T19:05:08.478Z,12.52
2023-04-28T19:07:36.817Z,13.73
2023-04-28T19:10:05.530Z,19.88
2023-04-28T19:12:33.824Z,18.60
2023-04-28T19:15:02.274Z,16.70
2023-04-28T19:17:31.025Z,16.45
2023-04-28T19:19:59.499Z,21.35
2023-04-28T19:22:33.819Z,17.70
2023-04-28T19:25:02.255Z,11.07
2023-04-28T19:27:32.345Z,10.68
2023-04-28T19:30:00.899Z,7.70
2023-04-28T19:32:30.183Z,7.88
2023-04-28T19:35:00.392Z,8.25
2023-04-28T19:37:30.821Z,7.78
2023-04-28T19:40:00.311Z,7.50
2023-04-28T19:42:28.579Z,7.60
2023-04-28T19:44:58.160Z,8.52
2023-04-28T19:47:27.296Z,10.40
2023-04-28T19:49:56.216Z,8.93
2023-04-28T19:52:24.670Z,9.32
2023-04-28T19:54:53.563Z,9.02
2023-04-28T19:57:23.642Z,9.50
2023-04-28T19:59:51.947Z,10.55
2023-04-28T20:02:21.275Z,10.85
2023-04-28T20:04:50.335Z,10.60
2023-04-28T20:07:18.556Z,14.10
2023-04-28T20:09:46.726Z,19.15
2023-04-28T20:12:15.345Z,15.40
2023-04-28T20:14:44.887Z,11.15
2023-04-28T20:17:12.977Z,13.95
2023-04-28T20:19:41.116Z,13.27
2023-04-28T20:22:09.564Z,13.48
2023-04-28T20:24:38.578Z,13.60
2023-04-28T20:27:07.291Z,13.95
2023-04-28T20:29:35.864Z,16.77
2023-04-28T20:32:06.401Z,15.90
2023-04-28T20:34:35.156Z,17.10
2023-04-28T20:37:06.412Z,15.27
2023-04-28T20:39:34.986Z,17.40
2023-04-28T20:42:03.733Z,15.57
2023-04-28T20:44:32.299Z,17.38
2023-04-28T20:47:01.622Z,17.98
2023-04-28T20:49:31.517Z,19.08
2023-04-28T20:52:04.019Z,18.10
2023-04-28T20:54:32.819Z,19.42
2023-04-28T20:57:01.849Z,20.33
2023-04-28T20:59:32.348Z,20.13
2023-04-28T21:02:00.999Z,21.05
2023-04-28T21:04:30.695Z,18.90
2023-04-28T21:06:58.828Z,18.30
2023-04-28T21:09:27.013Z,18.85
2023-04-28T21:11:55.182Z,18.35
2023-04-28T21:14:23.382Z,20.52
2023-04-28T21:16:52.079Z,19.48
2023-04-28T21:19:20.256Z,18.17
2023-04-28T21:21:49.776Z,16.90
2023-04-28T21:24:17.884Z,26.92
2023-04-28T21:26:46.555Z,17.00
2023-04-28T21:29:15.521Z,15.38
2023-04-28T21:31:43.625Z,15.15
2023-04-28T21:34:11.883Z,17.17
2023-04-28T21:36:40.383Z,14.85
2023-04-28T21:39:10.523Z,14.20
2023-04-28T21:41:38.696Z,15.35
2023-04-28T21:44:06.742Z,15.63
2023-04-28T21:46:36.238Z,15.27
2023-04-28T21:49:04.379Z,14.93
2023-04-28T21:51:32.879Z,15.40
2023-04-28T21:54:01.559Z,15.55
2023-04-28T21:56:31.016Z,15.70
2023-04-28T21:59:00.139Z,15.45
2023-04-28T22:01:28.904Z,16.00
2023-04-28T22:03:57.368Z,15.55
2023-04-28T22:06:26.389Z,17.13
2023-04-28T22:08:54.571Z,14.98
2023-04-28T22:11:23.286Z,16.05
2023-04-28T22:13:52.808Z,16.42
2023-04-28T22:16:21.797Z,16.45
2023-04-28T22:18:50.054Z,18.52
2023-04-28T22:21:19.183Z,22.60
2023-04-28T22:23:47.390Z,22.08
2023-04-28T22:26:16.316Z,18.38
2023-04-28T22:28:44.405Z,17.05
2023-04-28T22:31:14.407Z,17.52
2023-04-28T22:33:42.566Z,14.50
2023-04-28T22:36:10.706Z,13.80
2023-04-28T22:38:38.752Z,13.73
2023-04-28T22:41:07.028Z,14.27
2023-04-28T22:43:35.217Z,13.75
2023-04-28T22:46:03.605Z,13.73
2023-04-28T22:48:33.507Z,16.17
2023-04-28T22:51:01.878Z,14.60
2023-04-28T22:53:30.104Z,15.63
2023-04-28T22:55:58.438Z,14.68
2023-04-28T22:58:26.512Z,15.02
2023-04-28T23:00:54.657Z,15.02
2023-04-28T23:03:23.009Z,14.50
2023-04-28T23:05:52.683Z,15.63
2023-04-28T23:08:20.826Z,15.43
2023-04-28T23:10:49.038Z,16.85
2023-04-28T23:13:17.221Z,17.90
2023-04-28T23:15:45.380Z,18.60
2023-04-28T23:18:13.551Z,17.60
2023-04-28T23:20:41.717Z,17.80
2023-04-28T23:23:11.291Z,19.08
2023-04-28T23:25:42.738Z,18.77
2023-04-28T23:28:11.038Z,19.88
2023-04-28T23:30:39.193Z,19.52
2023-04-28T23:33:07.390Z,18.30
2023-04-28T23:35:35.554Z,17.42
2023-04-28T23:38:03.864Z,16.38
2023-04-28T23:40:33.402Z,16.15
2023-04-28T23:43:01.524Z,16.38
2023-04-28T23:45:29.721Z,17.02
2023-04-28T23:47:57.864Z,16.77
2023-04-28T23:50:26.238Z,15.73
2023-04-28T23:52:54.447Z,16.65
2023-04-28T23:55:22.598Z,14.73
2023-04-28T23:57:52.162Z,15.02
